sensor_id;sensor_type;location;lat;lon;timestamp;pressure;altitude;pressure_sealevel;temperature;humidity
14882;BME280;7533;51.278;12.588;2023-01-27T00:01:16;100590.25;;;21.89;57.16
14882;BME280;7533;51.278;12.588;2023-01-27T00:06:19;100583.97;;;21.88;57.37
14882;BME280;7533;51.278;12.588;2023-01-27T00:11:22;100583.50;;;21.82;57.44
14882;BME280;7533;51.278;12.588;2023-01-27T00:16:44;100571.47;;;21.87;57.48
14882;BME280;7533;51.278;12.588;2023-01-27T00:21:47;100575.22;;;21.85;57.71
14882;BME280;7533;51.278;12.588;2023-01-27T00:27:08;100573.81;;;21.79;57.78
14882;BME280;7533;51.278;12.588;2023-01-27T00:32:13;100576.66;;;21.90;57.57
14882;BME280;7533;51.278;12.588;2023-01-27T00:37:33;100573.50;;;21.84;57.67
14882;BME280;7533;51.278;12.588;2023-01-27T00:42:40;100578.34;;;21.79;57.92
14882;BME280;7533;51.278;12.588;2023-01-27T00:47:46;100576.81;;;21.75;57.96
14882;BME280;7533;51.278;12.588;2023-01-27T00:52:49;100585.34;;;21.81;57.85
14882;BME280;7533;51.278;12.588;2023-01-27T00:57:52;100586.50;;;21.77;57.93
14882;BME280;7533;51.278;12.588;2023-01-27T01:02:56;100587.69;;;21.73;58.08
14882;BME280;7533;51.278;12.588;2023-01-27T01:07:59;100590.09;;;21.78;57.75
14882;BME280;7533;51.278;12.588;2023-01-27T01:13:02;100586.59;;;21.76;58.19
14882;BME280;7533;51.278;12.588;2023-01-27T01:18:09;100584.69;;;21.78;58.13
14882;BME280;7533;51.278;12.588;2023-01-27T01:23:13;100585.84;;;21.74;58.18
14882;BME280;7533;51.278;12.588;2023-01-27T01:28:16;100586.19;;;21.82;57.91
14882;BME280;7533;51.278;12.588;2023-01-27T01:33:20;100582.19;;;21.75;58.05
14882;BME280;7533;51.278;12.588;2023-01-27T01:38:23;100586.03;;;21.71;58.21
14882;BME280;7533;51.278;12.588;2023-01-27T01:43:26;100582.19;;;21.75;58.24
14882;BME280;7533;51.278;12.588;2023-01-27T01:48:33;100588.16;;;21.80;58.33
14882;BME280;7533;51.278;12.588;2023-01-27T01:53:40;100582.88;;;21.78;58.25
14882;BME280;7533;51.278;12.588;2023-01-27T01:58:46;100574.22;;;21.73;58.25
14882;BME280;7533;51.278;12.588;2023-01-27T02:03:55;100578.97;;;21.82;58.02
14882;BME280;7533;51.278;12.588;2023-01-27T02:08:59;100578.34;;;21.79;58.22
14882;BME280;7533;51.278;12.588;2023-01-27T02:14:02;100584.38;;;21.82;58.04
14882;BME280;7533;51.278;12.588;2023-01-27T02:19:10;100571.41;;;21.75;58.16
14882;BME280;7533;51.278;12.588;2023-01-27T02:24:16;100574.44;;;21.83;58.14
14882;BME280;7533;51.278;12.588;2023-01-27T02:29:20;100580.34;;;21.75;58.16
14882;BME280;7533;51.278;12.588;2023-01-27T02:34:26;100581.44;;;21.73;58.37
14882;BME280;7533;51.278;12.588;2023-01-27T02:39:33;100586.50;;;21.77;58.27
14882;BME280;7533;51.278;12.588;2023-01-27T02:44:39;100589.31;;;21.76;58.31
14882;BME280;7533;51.278;12.588;2023-01-27T02:49:42;100595.47;;;21.78;58.29
14882;BME280;7533;51.278;12.588;2023-01-27T02:54:44;100600.47;;;21.70;58.45
14882;BME280;7533;51.278;12.588;2023-01-27T02:59:49;100610.59;;;21.66;58.42
14882;BME280;7533;51.278;12.588;2023-01-27T03:04:51;100612.97;;;21.71;58.49
14882;BME280;7533;51.278;12.588;2023-01-27T03:09:55;100615.22;;;21.64;58.72
14882;BME280;7533;51.278;12.588;2023-01-27T03:14:59;100621.97;;;21.57;58.66
14882;BME280;7533;51.278;12.588;2023-01-27T03:20:20;100633.97;;;21.65;58.82
14882;BME280;7533;51.278;12.588;2023-01-27T03:25:23;100629.53;;;21.64;58.68
14882;BME280;7533;51.278;12.588;2023-01-27T03:30:30;100635.22;;;21.74;58.68
14882;BME280;7533;51.278;12.588;2023-01-27T03:35:41;100639.47;;;21.64;58.66
14882;BME280;7533;51.278;12.588;2023-01-27T03:40:51;100640.31;;;21.64;58.55
14882;BME280;7533;51.278;12.588;2023-01-27T03:46:14;100643.19;;;21.76;58.48
14882;BME280;7533;51.278;12.588;2023-01-27T03:51:22;100644.16;;;21.75;58.59
14882;BME280;7533;51.278;12.588;2023-01-27T03:56:25;100644.16;;;21.75;58.48
14882;BME280;7533;51.278;12.588;2023-01-27T04:01:29;100637.34;;;21.69;58.57
14882;BME280;7533;51.278;12.588;2023-01-27T04:06:34;100641.09;;;21.67;58.76
14882;BME280;7533;51.278;12.588;2023-01-27T04:11:57;100638.41;;;21.67;58.67
14882;BME280;7533;51.278;12.588;2023-01-27T04:17:04;100642.53;;;21.72;58.73
14882;BME280;7533;51.278;12.588;2023-01-27T04:22:09;100636.09;;;21.60;58.97
14882;BME280;7533;51.278;12.588;2023-01-27T04:27:13;100642.91;;;21.66;58.92
14882;BME280;7533;51.278;12.588;2023-01-27T04:32:18;100640.03;;;21.69;58.81
14882;BME280;7533;51.278;12.588;2023-01-27T04:37:21;100640.91;;;21.70;58.77
14882;BME280;7533;51.278;12.588;2023-01-27T04:42:24;100651.38;;;21.74;58.78
14882;BME280;7533;51.278;12.588;2023-01-27T04:47:28;100658.09;;;21.81;58.52
14882;BME280;7533;51.278;12.588;2023-01-27T04:52:31;100655.09;;;21.86;58.37
14882;BME280;7533;51.278;12.588;2023-01-27T04:57:33;100667.72;;;21.85;58.30
14882;BME280;7533;51.278;12.588;2023-01-27T05:02:37;100665.88;;;21.86;58.13
14882;BME280;7533;51.278;12.588;2023-01-27T05:07:40;100669.44;;;21.86;58.21
14882;BME280;7533;51.278;12.588;2023-01-27T05:12:43;100663.47;;;21.81;58.05
14882;BME280;7533;51.278;12.588;2023-01-27T05:17:47;100670.03;;;21.77;58.03
14882;BME280;7533;51.278;12.588;2023-01-27T05:22:50;100673.91;;;21.73;58.06
14882;BME280;7533;51.278;12.588;2023-01-27T05:28:13;100675.56;;;21.61;58.28
14882;BME280;7533;51.278;12.588;2023-01-27T05:33:17;100668.06;;;21.52;58.49
14882;BME280;7533;51.278;12.588;2023-01-27T05:38:20;100679.22;;;21.46;58.58
14882;BME280;7533;51.278;12.588;2023-01-27T05:43:23;100676.13;;;21.38;58.81
14882;BME280;7533;51.278;12.588;2023-01-27T05:48:28;100675.66;;;21.31;58.97
14882;BME280;7533;51.278;12.588;2023-01-27T05:53:32;100677.06;;;21.23;59.26
14882;BME280;7533;51.278;12.588;2023-01-27T05:58:35;100687.44;;;21.14;59.40
14882;BME280;7533;51.278;12.588;2023-01-27T06:03:40;100696.56;;;21.12;59.40
14882;BME280;7533;51.278;12.588;2023-01-27T06:08:44;100688.94;;;21.04;59.55
14882;BME280;7533;51.278;12.588;2023-01-27T06:13:47;100700.00;;;21.00;59.66
14882;BME280;7533;51.278;12.588;2023-01-27T06:18:51;100699.44;;;20.95;59.80
14882;BME280;7533;51.278;12.588;2023-01-27T06:23:54;100694.47;;;20.87;60.01
14882;BME280;7533;51.278;12.588;2023-01-27T06:28:58;100700.25;;;20.81;59.89
14882;BME280;7533;51.278;12.588;2023-01-27T06:34:02;100709.75;;;20.72;60.30
14882;BME280;7533;51.278;12.588;2023-01-27T06:39:05;100713.94;;;20.62;60.45
14882;BME280;7533;51.278;12.588;2023-01-27T06:44:08;100712.56;;;20.55;60.82
14882;BME280;7533;51.278;12.588;2023-01-27T06:49:12;100695.06;;;20.32;61.31
14882;BME280;7533;51.278;12.588;2023-01-27T06:54:15;100710.75;;;20.24;61.64
14882;BME280;7533;51.278;12.588;2023-01-27T06:59:18;100707.69;;;20.14;61.94
14882;BME280;7533;51.278;12.588;2023-01-27T07:04:22;100715.19;;;20.09;61.96
14882;BME280;7533;51.278;12.588;2023-01-27T07:09:25;100716.41;;;20.03;62.16
14882;BME280;7533;51.278;12.588;2023-01-27T07:14:28;100721.94;;;20.00;62.23
14882;BME280;7533;51.278;12.588;2023-01-27T07:19:32;100728.53;;;19.95;62.49
14882;BME280;7533;51.278;12.588;2023-01-27T07:24:36;100738.50;;;19.93;62.21
14882;BME280;7533;51.278;12.588;2023-01-27T07:29:39;100748.44;;;19.91;62.56
14882;BME280;7533;51.278;12.588;2023-01-27T07:34:43;100744.22;;;19.87;62.69
14882;BME280;7533;51.278;12.588;2023-01-27T07:39:46;100752.31;;;19.85;62.68
14882;BME280;7533;51.278;12.588;2023-01-27T07:44:49;100753.63;;;19.78;62.78
14882;BME280;7533;51.278;12.588;2023-01-27T07:49:53;100754.50;;;19.78;62.85
14882;BME280;7533;51.278;12.588;2023-01-27T07:54:56;100753.63;;;19.78;62.76
14882;BME280;7533;51.278;12.588;2023-01-27T07:59:59;100757.44;;;19.74;62.92
14882;BME280;7533;51.278;12.588;2023-01-27T08:05:03;100771.13;;;19.85;62.77
14882;BME280;7533;51.278;12.588;2023-01-27T08:10:07;100775.94;;;20.12;62.22
14882;BME280;7533;51.278;12.588;2023-01-27T08:15:10;100779.06;;;20.35;61.73
14882;BME280;7533;51.278;12.588;2023-01-27T08:20:15;100782.66;;;20.52;61.19
14882;BME280;7533;51.278;12.588;2023-01-27T08:25:19;100775.03;;;20.60;61.14
14882;BME280;7533;51.278;12.588;2023-01-27T08:30:23;100781.06;;;20.64;60.90
14882;BME280;7533;51.278;12.588;2023-01-27T08:35:27;100788.16;;;20.17;55.55
14882;BME280;7533;51.278;12.588;2023-01-27T08:40:30;100803.91;;;15.57;46.19
14882;BME280;7533;51.278;12.588;2023-01-27T08:45:34;100798.44;;;16.98;48.20
14882;BME280;7533;51.278;12.588;2023-01-27T08:50:38;100796.69;;;18.72;47.79
14882;BME280;7533;51.278;12.588;2023-01-27T08:55:41;100789.16;;;19.33;48.02
14882;BME280;7533;51.278;12.588;2023-01-27T09:00:44;100801.16;;;19.60;48.63
14882;BME280;7533;51.278;12.588;2023-01-27T09:05:48;100803.69;;;19.79;49.23
14882;BME280;7533;51.278;12.588;2023-01-27T09:10:51;100798.53;;;19.92;49.89
14882;BME280;7533;51.278;12.588;2023-01-27T09:15:54;100794.38;;;20.02;50.47
14882;BME280;7533;51.278;12.588;2023-01-27T09:21:01;100807.31;;;20.11;51.24
14882;BME280;7533;51.278;12.588;2023-01-27T09:26:05;100806.13;;;20.17;51.77
14882;BME280;7533;51.278;12.588;2023-01-27T09:31:08;100807.59;;;20.22;52.29
14882;BME280;7533;51.278;12.588;2023-01-27T09:36:16;100809.06;;;20.28;52.80
14882;BME280;7533;51.278;12.588;2023-01-27T09:41:45;100809.69;;;20.33;53.25
14882;BME280;7533;51.278;12.588;2023-01-27T09:47:05;100814.81;;;20.38;53.70
14882;BME280;7533;51.278;12.588;2023-01-27T09:52:29;100819.75;;;20.45;53.88
14882;BME280;7533;51.278;12.588;2023-01-27T09:57:55;100812.41;;;20.49;54.31
14882;BME280;7533;51.278;12.588;2023-01-27T10:03:25;100803.28;;;20.51;54.65
14882;BME280;7533;51.278;12.588;2023-01-27T10:08:52;100805.72;;;20.56;54.81
14882;BME280;7533;51.278;12.588;2023-01-27T10:14:13;100806.44;;;20.59;54.98
14882;BME280;7533;51.278;12.588;2023-01-27T10:19:29;100810.75;;;20.62;55.22
14882;BME280;7533;51.278;12.588;2023-01-27T10:24:49;100810.59;;;20.65;55.31
14882;BME280;7533;51.278;12.588;2023-01-27T10:30:02;100809.44;;;20.69;55.54
14882;BME280;7533;51.278;12.588;2023-01-27T10:35:15;100811.97;;;20.72;55.77
14882;BME280;7533;51.278;12.588;2023-01-27T10:40:26;100810.91;;;20.75;55.91
14882;BME280;7533;51.278;12.588;2023-01-27T10:45:35;100807.25;;;20.76;55.94
14882;BME280;7533;51.278;12.588;2023-01-27T10:50:43;100812.63;;;20.76;56.23
14882;BME280;7533;51.278;12.588;2023-01-27T10:55:56;100817.16;;;20.75;56.38
14882;BME280;7533;51.278;12.588;2023-01-27T11:01:04;100812.72;;;20.74;56.35
14882;BME280;7533;51.278;12.588;2023-01-27T11:06:28;100811.97;;;20.72;56.59
14882;BME280;7533;51.278;12.588;2023-01-27T11:11:34;100805.44;;;20.76;56.61
14882;BME280;7533;51.278;12.588;2023-01-27T11:16:48;100808.41;;;20.72;57.34
14882;BME280;7533;51.278;12.588;2023-01-27T11:21:53;100812.81;;;20.73;57.76
14882;BME280;7533;51.278;12.588;2023-01-27T11:27:17;100819.16;;;20.72;57.72
14882;BME280;7533;51.278;12.588;2023-01-27T11:32:32;100813.78;;;20.72;58.13
14882;BME280;7533;51.278;12.588;2023-01-27T11:37:41;100813.44;;;20.78;58.49
14882;BME280;7533;51.278;12.588;2023-01-27T11:42:46;100808.16;;;20.76;58.77
14882;BME280;7533;51.278;12.588;2023-01-27T11:47:55;100805.44;;;20.76;58.74
14882;BME280;7533;51.278;12.588;2023-01-27T11:53:11;100809.06;;;20.75;58.92
14882;BME280;7533;51.278;12.588;2023-01-27T11:58:21;100805.44;;;20.76;59.08
14882;BME280;7533;51.278;12.588;2023-01-27T12:03:34;100794.69;;;20.76;59.29
14882;BME280;7533;51.278;12.588;2023-01-27T12:08:44;100798.25;;;20.77;59.05
14882;BME280;7533;51.278;12.588;2023-01-27T12:13:51;100791.91;;;20.78;59.27
14882;BME280;7533;51.278;12.588;2023-01-27T12:18:59;100789.22;;;20.78;59.23
14882;BME280;7533;51.278;12.588;2023-01-27T12:24:04;100784.59;;;20.80;59.28
14882;BME280;7533;51.278;12.588;2023-01-27T12:29:16;100777.22;;;20.83;59.20
14882;BME280;7533;51.278;12.588;2023-01-27T12:34:27;100768.97;;;20.86;59.31
14882;BME280;7533;51.278;12.588;2023-01-27T12:39:39;100775.91;;;20.91;59.42
14882;BME280;7533;51.278;12.588;2023-01-27T12:44:45;100770.63;;;20.89;59.39
14882;BME280;7533;51.278;12.588;2023-01-27T12:49:48;100777.81;;;20.89;59.45
14882;BME280;7533;51.278;12.588;2023-01-27T12:54:51;100779.66;;;20.88;59.62
14882;BME280;7533;51.278;12.588;2023-01-27T12:59:56;100775.31;;;20.85;59.46
14882;BME280;7533;51.278;12.588;2023-01-27T13:05:02;100774.34;;;20.86;59.57
14882;BME280;7533;51.278;12.588;2023-01-27T13:10:15;100778.09;;;20.84;59.88
14882;BME280;7533;51.278;12.588;2023-01-27T13:15:23;100767.31;;;20.84;59.65
14882;BME280;7533;51.278;12.588;2023-01-27T13:20:29;100771.84;;;20.83;59.75
14882;BME280;7533;51.278;12.588;2023-01-27T13:25:37;100762.81;;;20.84;59.89
14882;BME280;7533;51.278;12.588;2023-01-27T13:30:46;100773.56;;;20.84;59.58
14882;BME280;7533;51.278;12.588;2023-01-27T13:35:58;100776.38;;;20.83;59.85
14882;BME280;7533;51.278;12.588;2023-01-27T13:41:09;100783.75;;;20.79;60.06
14882;BME280;7533;51.278;12.588;2023-01-27T13:46:21;100788.09;;;20.82;59.73
14882;BME280;7533;51.278;12.588;2023-01-27T13:51:28;100790.78;;;20.82;59.87
14882;BME280;7533;51.278;12.588;2023-01-27T13:56:41;100795.25;;;20.81;60.29
14882;BME280;7533;51.278;12.588;2023-01-27T14:01:53;100794.41;;;20.81;60.32
14882;BME280;7533;51.278;12.588;2023-01-27T14:07:03;100803.53;;;20.78;60.36
14882;BME280;7533;51.278;12.588;2023-01-27T14:12:17;100809.78;;;20.79;60.56
14882;BME280;7533;51.278;12.588;2023-01-27T14:17:35;100805.34;;;20.78;60.56
14882;BME280;7533;51.278;12.588;2023-01-27T14:22:48;100807.69;;;20.84;60.52
14882;BME280;7533;51.278;12.588;2023-01-27T14:27:59;100808.56;;;20.84;60.68
14882;BME280;7533;51.278;12.588;2023-01-27T14:33:19;100815.66;;;20.85;61.00
14882;BME280;7533;51.278;12.588;2023-01-27T14:38:30;100811.75;;;20.75;61.01
14882;BME280;7533;51.278;12.588;2023-01-27T14:43:38;100810.75;;;20.78;60.73
14882;BME280;7533;51.278;12.588;2023-01-27T14:48:54;100816.53;;;20.86;60.40
14882;BME280;7533;51.278;12.588;2023-01-27T14:54:11;100813.81;;;21.02;59.63
14882;BME280;7533;51.278;12.588;2023-01-27T14:59:28;100817.44;;;21.17;58.61
14882;BME280;7533;51.278;12.588;2023-01-27T15:04:51;100823.81;;;21.30;57.33
14882;BME280;7533;51.278;12.588;2023-01-27T15:10:06;100816.13;;;21.38;56.87
14882;BME280;7533;51.278;12.588;2023-01-27T15:15:26;100823.78;;;21.46;55.96
14882;BME280;7533;51.278;12.588;2023-01-27T15:20:54;100820.59;;;21.53;55.65
14882;BME280;7533;51.278;12.588;2023-01-27T15:26:06;100817.63;;;21.58;55.49
14882;BME280;7533;51.278;12.588;2023-01-27T15:31:22;100827.16;;;21.63;54.71
14882;BME280;7533;51.278;12.588;2023-01-27T15:36:35;100831.41;;;21.68;54.37
14882;BME280;7533;51.278;12.588;2023-01-27T15:41:50;100837.38;;;21.73;53.77
14882;BME280;7533;51.278;12.588;2023-01-27T15:46:55;100836.44;;;21.74;53.82
14882;BME280;7533;51.278;12.588;2023-01-27T15:52:27;100849.09;;;21.72;53.93
14882;BME280;7533;51.278;12.588;2023-01-27T15:57:33;100854.16;;;21.78;53.96
14882;BME280;7533;51.278;12.588;2023-01-27T16:02:43;100866.06;;;21.74;54.36
14882;BME280;7533;51.278;12.588;2023-01-27T16:07:52;100867.03;;;21.73;54.56
14882;BME280;7533;51.278;12.588;2023-01-27T16:13:11;100869.03;;;21.69;54.93
14882;BME280;7533;51.278;12.588;2023-01-27T16:18:25;100867.69;;;21.62;55.18
14882;BME280;7533;51.278;12.588;2023-01-27T16:23:38;100871.03;;;21.65;55.28
14882;BME280;7533;51.278;12.588;2023-01-27T16:28:45;100869.31;;;21.64;55.58
14882;BME280;7533;51.278;12.588;2023-01-27T16:33:52;100878.34;;;21.63;55.75
14882;BME280;7533;51.278;12.588;2023-01-27T16:39:02;100873.19;;;21.75;55.76
14882;BME280;7533;51.278;12.588;2023-01-27T16:44:15;100880.50;;;21.73;56.15
14882;BME280;7533;51.278;12.588;2023-01-27T16:49:21;100882.06;;;21.91;56.47
14882;BME280;7533;51.278;12.588;2023-01-27T16:54:33;100878.94;;;22.13;56.66
14882;BME280;7533;51.278;12.588;2023-01-27T16:59:38;100878.81;;;22.14;57.08
14882;BME280;7533;51.278;12.588;2023-01-27T17:04:48;100882.50;;;22.13;56.23
14882;BME280;7533;51.278;12.588;2023-01-27T17:09:54;100889.19;;;22.06;56.16
14882;BME280;7533;51.278;12.588;2023-01-27T17:14:59;100894.19;;;21.98;55.77
14882;BME280;7533;51.278;12.588;2023-01-27T17:20:05;100899.19;;;22.04;55.17
14882;BME280;7533;51.278;12.588;2023-01-27T17:25:14;100902.03;;;22.17;54.69
14882;BME280;7533;51.278;12.588;2023-01-27T17:30:20;100897.31;;;22.21;54.35
14882;BME280;7533;51.278;12.588;2023-01-27T17:35:26;100900.78;;;22.23;53.82
14882;BME280;7533;51.278;12.588;2023-01-27T17:40:34;100898.94;;;22.37;53.18
14882;BME280;7533;51.278;12.588;2023-01-27T17:45:39;100908.00;;;22.51;52.92
14882;BME280;7533;51.278;12.588;2023-01-27T17:50:44;100919.06;;;22.60;52.91
14882;BME280;7533;51.278;12.588;2023-01-27T17:55:49;100921.75;;;22.60;52.48
14882;BME280;7533;51.278;12.588;2023-01-27T18:00:53;100917.31;;;22.59;52.13
14882;BME280;7533;51.278;12.588;2023-01-27T18:05:57;100922.53;;;22.62;51.65
14882;BME280;7533;51.278;12.588;2023-01-27T18:11:10;100923.47;;;22.61;51.76
14882;BME280;7533;51.278;12.588;2023-01-27T18:16:14;100924.84;;;22.54;51.82
14882;BME280;7533;51.278;12.588;2023-01-27T18:21:22;100932.53;;;22.60;52.06
14882;BME280;7533;51.278;12.588;2023-01-27T18:26:29;100930.41;;;22.65;51.75
14882;BME280;7533;51.278;12.588;2023-01-27T18:31:34;100933.00;;;22.67;51.90
14882;BME280;7533;51.278;12.588;2023-01-27T18:36:50;100947.97;;;22.58;51.72
14882;BME280;7533;51.278;12.588;2023-01-27T18:41:55;100952.97;;;22.64;51.92
14882;BME280;7533;51.278;12.588;2023-01-27T18:47:10;100953.16;;;22.61;51.66
14882;BME280;7533;51.278;12.588;2023-01-27T18:52:20;100967.44;;;22.63;51.74
14882;BME280;7533;51.278;12.588;2023-01-27T18:57:25;100967.44;;;22.63;51.71
14882;BME280;7533;51.278;12.588;2023-01-27T19:02:28;100970.53;;;22.57;51.47
14882;BME280;7533;51.278;12.588;2023-01-27T19:07:31;100965.59;;;22.64;51.51
14882;BME280;7533;51.278;12.588;2023-01-27T19:12:35;100970.44;;;22.59;51.40
14882;BME280;7533;51.278;12.588;2023-01-27T19:17:38;100969.06;;;22.66;51.52
14882;BME280;7533;51.278;12.588;2023-01-27T19:22:41;100969.94;;;22.24;53.01
14882;BME280;7533;51.278;12.588;2023-01-27T19:27:48;100973.03;;;22.46;52.93
14882;BME280;7533;51.278;12.588;2023-01-27T19:32:53;100970.34;;;22.46;53.34
14882;BME280;7533;51.278;12.588;2023-01-27T19:37:58;100979.09;;;22.50;53.38
14882;BME280;7533;51.278;12.588;2023-01-27T19:43:03;100979.78;;;22.53;53.50
14882;BME280;7533;51.278;12.588;2023-01-27T19:48:10;100979.50;;;22.58;53.21
14882;BME280;7533;51.278;12.588;2023-01-27T19:53:16;100985.66;;;22.60;53.48
14882;BME280;7533;51.278;12.588;2023-01-27T19:58:22;100982.97;;;22.46;53.79
14882;BME280;7533;51.278;12.588;2023-01-27T20:03:25;100992.00;;;22.44;53.59
14882;BME280;7533;51.278;12.588;2023-01-27T20:08:28;100996.44;;;22.60;53.49
14882;BME280;7533;51.278;12.588;2023-01-27T20:13:32;100981.50;;;22.54;53.56
14882;BME280;7533;51.278;12.588;2023-01-27T20:18:35;100992.41;;;22.53;53.42
14882;BME280;7533;51.278;12.588;2023-01-27T20:23:38;101004.75;;;22.57;53.68
14882;BME280;7533;51.278;12.588;2023-01-27T20:28:43;101010.91;;;22.59;53.51
14882;BME280;7533;51.278;12.588;2023-01-27T20:33:46;101009.06;;;22.59;53.31
14882;BME280;7533;51.278;12.588;2023-01-27T20:38:50;101014.47;;;22.59;53.36
14882;BME280;7533;51.278;12.588;2023-01-27T20:43:56;101012.72;;;22.58;53.39
14882;BME280;7533;51.278;12.588;2023-01-27T20:49:00;101018.88;;;22.60;53.38
14882;BME280;7533;51.278;12.588;2023-01-27T20:54:03;101024.09;;;22.63;53.40
14882;BME280;7533;51.278;12.588;2023-01-27T20:59:08;101021.88;;;22.56;53.25
14882;BME280;7533;51.278;12.588;2023-01-27T21:04:11;101031.50;;;22.60;53.26
14882;BME280;7533;51.278;12.588;2023-01-27T21:09:13;101034.09;;;22.61;53.22
14882;BME280;7533;51.278;12.588;2023-01-27T21:14:18;101026.72;;;22.51;53.15
14882;BME280;7533;51.278;12.588;2023-01-27T21:19:20;101026.31;;;22.57;52.93
14882;BME280;7533;51.278;12.588;2023-01-27T21:24:23;101026.69;;;22.65;52.97
14882;BME280;7533;51.278;12.588;2023-01-27T21:29:28;101022.91;;;22.39;53.52
14882;BME280;7533;51.278;12.588;2023-01-27T21:34:32;101021.34;;;22.21;54.76
14882;BME280;7533;51.278;12.588;2023-01-27T21:39:35;101022.31;;;21.89;55.51
14882;BME280;7533;51.278;12.588;2023-01-27T21:44:39;101019.38;;;21.78;55.82
14882;BME280;7533;51.278;12.588;2023-01-27T21:49:59;101026.16;;;21.70;56.15
14882;BME280;7533;51.278;12.588;2023-01-27T21:55:05;101011.94;;;21.68;56.37
14882;BME280;7533;51.278;12.588;2023-01-27T22:00:11;101012.13;;;21.95;55.94
14882;BME280;7533;51.278;12.588;2023-01-27T22:05:15;101015.88;;;21.76;56.30
14882;BME280;7533;51.278;12.588;2023-01-27T22:10:19;101020.03;;;21.82;56.29
14882;BME280;7533;51.278;12.588;2023-01-27T22:15:25;101019.44;;;21.77;56.22
14882;BME280;7533;51.278;12.588;2023-01-27T22:20:29;101032.25;;;21.73;56.38
14882;BME280;7533;51.278;12.588;2023-01-27T22:25:32;101028.72;;;21.87;56.33
14882;BME280;7533;51.278;12.588;2023-01-27T22:30:37;101023.66;;;21.67;56.66
14882;BME280;7533;51.278;12.588;2023-01-27T22:35:40;101026.41;;;21.81;56.52
14882;BME280;7533;51.278;12.588;2023-01-27T22:40:43;101013.13;;;21.78;56.55
14882;BME280;7533;51.278;12.588;2023-01-27T22:45:47;101021.91;;;21.65;56.88
14882;BME280;7533;51.278;12.588;2023-01-27T22:50:50;101026.53;;;21.63;56.81
14882;BME280;7533;51.278;12.588;2023-01-27T22:55:56;101024.22;;;21.72;56.70
14882;BME280;7533;51.278;12.588;2023-01-27T23:01:03;101031.75;;;21.67;57.17
14882;BME280;7533;51.278;12.588;2023-01-27T23:06:07;101028.59;;;21.74;57.00
14882;BME280;7533;51.278;12.588;2023-01-27T23:11:10;101018.22;;;21.82;56.78
14882;BME280;7533;51.278;12.588;2023-01-27T23:16:15;101021.41;;;21.59;57.14
14882;BME280;7533;51.278;12.588;2023-01-27T23:21:17;101017.56;;;21.79;56.66
14882;BME280;7533;51.278;12.588;2023-01-27T23:26:20;101017.56;;;21.79;56.79
14882;BME280;7533;51.278;12.588;2023-01-27T23:31:24;101008.66;;;21.77;57.11
14882;BME280;7533;51.278;12.588;2023-01-27T23:36:27;101007.91;;;21.75;56.96
14882;BME280;7533;51.278;12.588;2023-01-27T23:41:30;101011.28;;;21.78;56.94
14882;BME280;7533;51.278;12.588;2023-01-27T23:46:34;101009.63;;;21.76;57.07
14882;BME280;7533;51.278;12.588;2023-01-27T23:51:37;101018.84;;;21.72;57.23
14882;BME280;7533;51.278;12.588;2023-01-27T23:56:40;101015.13;;;21.74;57.37
